sensor_id;sensor_type;location;lat;lon;timestamp;P1;durP1;ratioP1;P2;durP2;ratioP2
63046;SDS011;62025;39.238;9.126;2023-02-27T00:01:32;7.03;;;4.57;;
63046;SDS011;62025;39.238;9.126;2023-02-27T00:03:59;5.93;;;4.40;;
63046;SDS011;62025;39.238;9.126;2023-02-27T00:06:26;7.00;;;4.60;;
63046;SDS011;62025;39.238;9.126;2023-02-27T00:08:53;7.05;;;4.32;;
63046;SDS011;62025;39.238;9.126;2023-02-27T00:11:19;5.85;;;4.20;;
63046;SDS011;62025;39.238;9.126;2023-02-27T00:13:45;7.25;;;4.80;;
63046;SDS011;62025;39.238;9.126;2023-02-27T00:16:11;7.22;;;5.20;;
63046;SDS011;62025;39.238;9.126;2023-02-27T00:18:38;6.22;;;4.32;;
63046;SDS011;62025;39.238;9.126;2023-02-27T00:21:04;6.15;;;4.30;;
63046;SDS011;62025;39.238;9.126;2023-02-27T00:23:30;8.88;;;4.82;;
63046;SDS011;62025;39.238;9.126;2023-02-27T00:25:56;6.55;;;4.70;;
63046;SDS011;62025;39.238;9.126;2023-02-27T00:28:26;7.82;;;5.13;;
63046;SDS011;62025;39.238;9.126;2023-02-27T00:30:52;7.15;;;4.47;;
63046;SDS011;62025;39.238;9.126;2023-02-27T00:33:19;6.95;;;4.97;;
63046;SDS011;62025;39.238;9.126;2023-02-27T00:35:53;7.20;;;4.50;;
63046;SDS011;62025;39.238;9.126;2023-02-27T00:38:24;6.78;;;4.53;;
63046;SDS011;62025;39.238;9.126;2023-02-27T00:40:50;6.15;;;4.50;;
63046;SDS011;62025;39.238;9.126;2023-02-27T00:43:16;7.70;;;4.07;;
63046;SDS011;62025;39.238;9.126;2023-02-27T00:45:42;6.97;;;4.35;;
63046;SDS011;62025;39.238;9.126;2023-02-27T00:48:08;8.27;;;4.80;;
63046;SDS011;62025;39.238;9.126;2023-02-27T00:50:34;5.78;;;4.03;;
63046;SDS011;62025;39.238;9.126;2023-02-27T00:53:01;5.05;;;3.60;;
63046;SDS011;62025;39.238;9.126;2023-02-27T00:55:27;5.03;;;3.72;;
63046;SDS011;62025;39.238;9.126;2023-02-27T00:57:53;4.50;;;3.45;;
63046;SDS011;62025;39.238;9.126;2023-02-27T01:00:19;4.07;;;2.83;;
63046;SDS011;62025;39.238;9.126;2023-02-27T01:02:45;3.40;;;2.47;;
63046;SDS011;62025;39.238;9.126;2023-02-27T01:05:11;3.55;;;2.50;;
63046;SDS011;62025;39.238;9.126;2023-02-27T01:07:38;3.30;;;2.40;;
63046;SDS011;62025;39.238;9.126;2023-02-27T01:10:05;2.58;;;2.15;;
63046;SDS011;62025;39.238;9.126;2023-02-27T01:12:36;3.42;;;2.40;;
63046;SDS011;62025;39.238;9.126;2023-02-27T01:15:03;3.70;;;2.30;;
63046;SDS011;62025;39.238;9.126;2023-02-27T01:17:31;3.80;;;2.47;;
63046;SDS011;62025;39.238;9.126;2023-02-27T01:19:57;3.53;;;2.53;;
63046;SDS011;62025;39.238;9.126;2023-02-27T01:22:23;2.83;;;2.40;;
63046;SDS011;62025;39.238;9.126;2023-02-27T01:24:49;5.88;;;2.95;;
63046;SDS011;62025;39.238;9.126;2023-02-27T01:27:15;4.68;;;2.90;;
63046;SDS011;62025;39.238;9.126;2023-02-27T01:29:41;5.47;;;3.20;;
63046;SDS011;62025;39.238;9.126;2023-02-27T01:32:07;7.20;;;3.40;;
63046;SDS011;62025;39.238;9.126;2023-02-27T01:34:33;5.43;;;4.00;;
63046;SDS011;62025;39.238;9.126;2023-02-27T01:37:00;7.07;;;4.60;;
63046;SDS011;62025;39.238;9.126;2023-02-27T01:39:27;7.18;;;4.55;;
63046;SDS011;62025;39.238;9.126;2023-02-27T01:41:53;7.53;;;4.45;;
63046;SDS011;62025;39.238;9.126;2023-02-27T01:44:19;6.40;;;4.20;;
63046;SDS011;62025;39.238;9.126;2023-02-27T01:46:45;6.60;;;4.10;;
63046;SDS011;62025;39.238;9.126;2023-02-27T01:49:13;5.63;;;3.80;;
63046;SDS011;62025;39.238;9.126;2023-02-27T01:51:59;5.28;;;3.47;;
63046;SDS011;62025;39.238;9.126;2023-02-27T01:54:31;8.18;;;3.67;;
63046;SDS011;62025;39.238;9.126;2023-02-27T01:57:03;5.78;;;3.40;;
63046;SDS011;62025;39.238;9.126;2023-02-27T01:59:31;4.80;;;3.43;;
63046;SDS011;62025;39.238;9.126;2023-02-27T02:02:03;8.43;;;4.30;;
63046;SDS011;62025;39.238;9.126;2023-02-27T02:04:37;9.10;;;4.07;;
63046;SDS011;62025;39.238;9.126;2023-02-27T02:09:39;5.68;;;3.42;;
63046;SDS011;62025;39.238;9.126;2023-02-27T02:12:09;10.15;;;3.70;;
63046;SDS011;62025;39.238;9.126;2023-02-27T02:14:41;7.07;;;3.70;;
63046;SDS011;62025;39.238;9.126;2023-02-27T02:31:46;7.55;;;4.20;;
63046;SDS011;62025;39.238;9.126;2023-02-27T02:48:01;6.97;;;3.90;;
63046;SDS011;62025;39.238;9.126;2023-02-27T02:53:41;4.85;;;3.67;;
63046;SDS011;62025;39.238;9.126;2023-02-27T02:56:36;7.13;;;3.67;;
63046;SDS011;62025;39.238;9.126;2023-02-27T03:01:52;5.53;;;2.83;;
63046;SDS011;62025;39.238;9.126;2023-02-27T03:07:23;4.80;;;2.70;;
63046;SDS011;62025;39.238;9.126;2023-02-27T03:12:30;4.05;;;2.10;;
63046;SDS011;62025;39.238;9.126;2023-02-27T03:15:01;3.95;;;2.30;;
63046;SDS011;62025;39.238;9.126;2023-02-27T03:20:34;3.67;;;2.70;;
63046;SDS011;62025;39.238;9.126;2023-02-27T03:23:07;4.93;;;2.47;;
63046;SDS011;62025;39.238;9.126;2023-02-27T03:25:40;3.40;;;2.60;;
63046;SDS011;62025;39.238;9.126;2023-02-27T03:28:12;6.03;;;2.20;;
63046;SDS011;62025;39.238;9.126;2023-02-27T03:34:11;6.30;;;2.40;;
63046;SDS011;62025;39.238;9.126;2023-02-27T03:39:30;4.28;;;1.67;;
63046;SDS011;62025;39.238;9.126;2023-02-27T03:48:09;4.70;;;1.30;;
63046;SDS011;62025;39.238;9.126;2023-02-27T03:50:36;2.55;;;1.48;;
63046;SDS011;62025;39.238;9.126;2023-02-27T03:53:04;1.73;;;1.10;;
63046;SDS011;62025;39.238;9.126;2023-02-27T03:55:39;3.70;;;1.30;;
63046;SDS011;62025;39.238;9.126;2023-02-27T03:58:08;2.45;;;1.35;;
63046;SDS011;62025;39.238;9.126;2023-02-27T04:00:34;2.85;;;1.20;;
63046;SDS011;62025;39.238;9.126;2023-02-27T04:03:00;2.58;;;1.40;;
63046;SDS011;62025;39.238;9.126;2023-02-27T04:05:29;5.53;;;1.60;;
63046;SDS011;62025;39.238;9.126;2023-02-27T04:13:38;2.30;;;1.30;;
63046;SDS011;62025;39.238;9.126;2023-02-27T04:16:45;2.85;;;1.65;;
63046;SDS011;62025;39.238;9.126;2023-02-27T04:22:12;1.52;;;1.42;;
63046;SDS011;62025;39.238;9.126;2023-02-27T04:25:04;2.90;;;1.70;;
63046;SDS011;62025;39.238;9.126;2023-02-27T04:44:32;3.60;;;1.63;;
63046;SDS011;62025;39.238;9.126;2023-02-27T04:47:02;4.20;;;1.63;;
63046;SDS011;62025;39.238;9.126;2023-02-27T04:49:40;3.28;;;2.03;;
63046;SDS011;62025;39.238;9.126;2023-02-27T04:52:26;3.60;;;1.75;;
63046;SDS011;62025;39.238;9.126;2023-02-27T04:55:20;2.80;;;2.13;;
63046;SDS011;62025;39.238;9.126;2023-02-27T04:58:02;6.13;;;1.73;;
63046;SDS011;62025;39.238;9.126;2023-02-27T05:00:36;2.03;;;1.77;;
63046;SDS011;62025;39.238;9.126;2023-02-27T05:05:39;3.08;;;1.90;;
63046;SDS011;62025;39.238;9.126;2023-02-27T05:08:09;4.55;;;2.42;;
63046;SDS011;62025;39.238;9.126;2023-02-27T05:10:54;4.50;;;2.03;;
63046;SDS011;62025;39.238;9.126;2023-02-27T05:13:31;3.78;;;2.60;;
63046;SDS011;62025;39.238;9.126;2023-02-27T05:19:09;2.78;;;1.90;;
63046;SDS011;62025;39.238;9.126;2023-02-27T05:21:37;4.93;;;1.80;;
63046;SDS011;62025;39.238;9.126;2023-02-27T05:27:14;4.28;;;1.88;;
63046;SDS011;62025;39.238;9.126;2023-02-27T05:29:58;2.20;;;1.67;;
63046;SDS011;62025;39.238;9.126;2023-02-27T05:32:54;6.07;;;2.20;;
63046;SDS011;62025;39.238;9.126;2023-02-27T05:38:28;2.63;;;1.98;;
63046;SDS011;62025;39.238;9.126;2023-02-27T05:41:04;2.95;;;1.90;;
63046;SDS011;62025;39.238;9.126;2023-02-27T05:44:18;2.13;;;1.42;;
63046;SDS011;62025;39.238;9.126;2023-02-27T05:46:59;2.70;;;1.40;;
63046;SDS011;62025;39.238;9.126;2023-02-27T05:49:51;3.05;;;1.60;;
63046;SDS011;62025;39.238;9.126;2023-02-27T05:52:30;2.55;;;1.30;;
63046;SDS011;62025;39.238;9.126;2023-02-27T05:57:44;2.25;;;1.20;;
63046;SDS011;62025;39.238;9.126;2023-02-27T06:03:05;2.60;;;1.50;;
63046;SDS011;62025;39.238;9.126;2023-02-27T06:05:31;3.20;;;1.48;;
63046;SDS011;62025;39.238;9.126;2023-02-27T06:07:58;7.03;;;1.80;;
63046;SDS011;62025;39.238;9.126;2023-02-27T06:10:24;1.83;;;1.65;;
63046;SDS011;62025;39.238;9.126;2023-02-27T06:12:51;3.17;;;2.13;;
63046;SDS011;62025;39.238;9.126;2023-02-27T06:15:17;3.35;;;2.15;;
63046;SDS011;62025;39.238;9.126;2023-02-27T06:17:43;4.55;;;2.05;;
63046;SDS011;62025;39.238;9.126;2023-02-27T06:20:10;3.25;;;2.00;;
63046;SDS011;62025;39.238;9.126;2023-02-27T06:22:36;3.40;;;1.90;;
63046;SDS011;62025;39.238;9.126;2023-02-27T06:25:02;4.50;;;2.50;;
63046;SDS011;62025;39.238;9.126;2023-02-27T06:27:29;5.10;;;2.85;;
63046;SDS011;62025;39.238;9.126;2023-02-27T06:29:55;4.65;;;2.30;;
63046;SDS011;62025;39.238;9.126;2023-02-27T06:32:21;6.63;;;2.70;;
63046;SDS011;62025;39.238;9.126;2023-02-27T06:34:50;4.72;;;2.80;;
63046;SDS011;62025;39.238;9.126;2023-02-27T06:37:17;4.47;;;3.05;;
63046;SDS011;62025;39.238;9.126;2023-02-27T06:39:43;7.50;;;3.47;;
63046;SDS011;62025;39.238;9.126;2023-02-27T06:42:09;7.07;;;3.97;;
63046;SDS011;62025;39.238;9.126;2023-02-27T06:44:34;6.22;;;3.80;;
63046;SDS011;62025;39.238;9.126;2023-02-27T06:47:00;4.82;;;3.25;;
63046;SDS011;62025;39.238;9.126;2023-02-27T06:49:26;4.65;;;3.25;;
63046;SDS011;62025;39.238;9.126;2023-02-27T06:51:52;5.97;;;2.80;;
63046;SDS011;62025;39.238;9.126;2023-02-27T06:54:18;8.73;;;3.70;;
63046;SDS011;62025;39.238;9.126;2023-02-27T06:56:44;3.50;;;2.83;;
63046;SDS011;62025;39.238;9.126;2023-02-27T06:59:10;4.40;;;2.85;;
63046;SDS011;62025;39.238;9.126;2023-02-27T07:01:37;5.47;;;2.50;;
63046;SDS011;62025;39.238;9.126;2023-02-27T07:04:03;2.95;;;2.38;;
63046;SDS011;62025;39.238;9.126;2023-02-27T07:06:29;6.25;;;2.92;;
63046;SDS011;62025;39.238;9.126;2023-02-27T07:08:55;7.15;;;3.65;;
63046;SDS011;62025;39.238;9.126;2023-02-27T07:11:21;9.15;;;4.47;;
63046;SDS011;62025;39.238;9.126;2023-02-27T07:13:47;9.48;;;4.68;;
63046;SDS011;62025;39.238;9.126;2023-02-27T07:16:12;7.50;;;4.43;;
63046;SDS011;62025;39.238;9.126;2023-02-27T07:18:38;5.47;;;4.38;;
63046;SDS011;62025;39.238;9.126;2023-02-27T07:21:05;9.05;;;4.70;;
63046;SDS011;62025;39.238;9.126;2023-02-27T07:23:31;7.32;;;5.15;;
63046;SDS011;62025;39.238;9.126;2023-02-27T07:25:57;7.20;;;4.97;;
63046;SDS011;62025;39.238;9.126;2023-02-27T07:28:23;11.77;;;5.78;;
63046;SDS011;62025;39.238;9.126;2023-02-27T07:30:51;12.35;;;5.22;;
63046;SDS011;62025;39.238;9.126;2023-02-27T07:33:19;6.63;;;5.00;;
63046;SDS011;62025;39.238;9.126;2023-02-27T07:35:46;9.23;;;5.07;;
63046;SDS011;62025;39.238;9.126;2023-02-27T07:38:12;6.57;;;4.72;;
63046;SDS011;62025;39.238;9.126;2023-02-27T07:40:38;12.00;;;6.32;;
63046;SDS011;62025;39.238;9.126;2023-02-27T07:43:04;7.10;;;4.60;;
63046;SDS011;62025;39.238;9.126;2023-02-27T07:45:30;9.00;;;4.68;;
63046;SDS011;62025;39.238;9.126;2023-02-27T07:47:56;5.32;;;3.67;;
63046;SDS011;62025;39.238;9.126;2023-02-27T07:50:22;4.80;;;3.80;;
63046;SDS011;62025;39.238;9.126;2023-02-27T07:52:48;7.65;;;3.67;;
63046;SDS011;62025;39.238;9.126;2023-02-27T07:55:15;5.28;;;3.63;;
63046;SDS011;62025;39.238;9.126;2023-02-27T07:57:43;9.00;;;4.10;;
63046;SDS011;62025;39.238;9.126;2023-02-27T08:00:10;4.15;;;3.05;;
63046;SDS011;62025;39.238;9.126;2023-02-27T08:02:39;4.65;;;3.10;;
63046;SDS011;62025;39.238;9.126;2023-02-27T08:05:06;4.72;;;3.17;;
63046;SDS011;62025;39.238;9.126;2023-02-27T08:07:32;4.95;;;3.55;;
63046;SDS011;62025;39.238;9.126;2023-02-27T08:09:58;7.32;;;3.65;;
63046;SDS011;62025;39.238;9.126;2023-02-27T08:12:24;5.93;;;3.30;;
63046;SDS011;62025;39.238;9.126;2023-02-27T08:14:50;6.13;;;3.70;;
63046;SDS011;62025;39.238;9.126;2023-02-27T08:17:16;9.07;;;3.20;;
63046;SDS011;62025;39.238;9.126;2023-02-27T08:19:42;4.88;;;3.28;;
63046;SDS011;62025;39.238;9.126;2023-02-27T08:22:08;6.65;;;4.10;;
63046;SDS011;62025;39.238;9.126;2023-02-27T08:24:34;7.55;;;3.65;;
63046;SDS011;62025;39.238;9.126;2023-02-27T08:27:00;6.97;;;4.07;;
63046;SDS011;62025;39.238;9.126;2023-02-27T08:29:27;6.30;;;3.90;;
63046;SDS011;62025;39.238;9.126;2023-02-27T08:31:55;5.50;;;3.72;;
63046;SDS011;62025;39.238;9.126;2023-02-27T08:34:26;6.50;;;3.92;;
63046;SDS011;62025;39.238;9.126;2023-02-27T08:36:53;8.35;;;4.53;;
63046;SDS011;62025;39.238;9.126;2023-02-27T08:39:19;6.38;;;4.30;;
63046;SDS011;62025;39.238;9.126;2023-02-27T08:44:16;7.70;;;4.30;;
63046;SDS011;62025;39.238;9.126;2023-02-27T08:46:44;4.93;;;3.30;;
63046;SDS011;62025;39.238;9.126;2023-02-27T08:49:10;5.95;;;2.97;;
63046;SDS011;62025;39.238;9.126;2023-02-27T08:51:36;3.88;;;3.03;;
63046;SDS011;62025;39.238;9.126;2023-02-27T08:54:03;3.88;;;2.90;;
63046;SDS011;62025;39.238;9.126;2023-02-27T08:56:29;5.45;;;3.60;;
63046;SDS011;62025;39.238;9.126;2023-02-27T08:58:55;4.35;;;2.40;;
63046;SDS011;62025;39.238;9.126;2023-02-27T09:01:21;3.33;;;2.30;;
63046;SDS011;62025;39.238;9.126;2023-02-27T09:03:47;3.88;;;1.75;;
63046;SDS011;62025;39.238;9.126;2023-02-27T09:06:13;7.47;;;1.80;;
63046;SDS011;62025;39.238;9.126;2023-02-27T09:08:39;3.95;;;2.60;;
63046;SDS011;62025;39.238;9.126;2023-02-27T09:11:05;3.92;;;1.83;;
63046;SDS011;62025;39.238;9.126;2023-02-27T09:13:31;2.88;;;1.30;;
63046;SDS011;62025;39.238;9.126;2023-02-27T09:15:57;4.65;;;1.67;;
63046;SDS011;62025;39.238;9.126;2023-02-27T09:18:23;6.55;;;1.30;;
63046;SDS011;62025;39.238;9.126;2023-02-27T09:20:49;2.72;;;1.33;;
63046;SDS011;62025;39.238;9.126;2023-02-27T09:23:16;4.63;;;1.10;;
63046;SDS011;62025;39.238;9.126;2023-02-27T09:25:42;3.20;;;1.50;;
63046;SDS011;62025;39.238;9.126;2023-02-27T09:28:09;3.35;;;1.17;;
63046;SDS011;62025;39.238;9.126;2023-02-27T09:30:35;1.88;;;1.45;;
63046;SDS011;62025;39.238;9.126;2023-02-27T09:33:00;4.05;;;1.30;;
63046;SDS011;62025;39.238;9.126;2023-02-27T09:35:27;3.58;;;1.23;;
63046;SDS011;62025;39.238;9.126;2023-02-27T09:37:52;3.40;;;0.70;;
63046;SDS011;62025;39.238;9.126;2023-02-27T09:40:23;3.08;;;1.00;;
63046;SDS011;62025;39.238;9.126;2023-02-27T09:42:57;5.53;;;0.93;;
63046;SDS011;62025;39.238;9.126;2023-02-27T09:45:29;1.05;;;0.85;;
63046;SDS011;62025;39.238;9.126;2023-02-27T09:50:56;2.63;;;0.80;;
63046;SDS011;62025;39.238;9.126;2023-02-27T09:56:16;2.03;;;0.85;;
63046;SDS011;62025;39.238;9.126;2023-02-27T10:01:37;3.22;;;0.80;;
63046;SDS011;62025;39.238;9.126;2023-02-27T10:04:27;1.90;;;0.93;;
63046;SDS011;62025;39.238;9.126;2023-02-27T10:15:54;3.50;;;0.93;;
63046;SDS011;62025;39.238;9.126;2023-02-27T10:21:00;3.85;;;1.13;;
63046;SDS011;62025;39.238;9.126;2023-02-27T10:26:18;2.40;;;0.90;;
63046;SDS011;62025;39.238;9.126;2023-02-27T10:28:50;2.00;;;0.90;;
63046;SDS011;62025;39.238;9.126;2023-02-27T10:31:17;3.50;;;1.10;;
63046;SDS011;62025;39.238;9.126;2023-02-27T10:33:47;2.33;;;0.90;;
63046;SDS011;62025;39.238;9.126;2023-02-27T10:36:14;3.05;;;0.90;;
63046;SDS011;62025;39.238;9.126;2023-02-27T10:38:43;4.00;;;1.10;;
63046;SDS011;62025;39.238;9.126;2023-02-27T10:41:14;5.15;;;1.05;;
63046;SDS011;62025;39.238;9.126;2023-02-27T10:43:43;4.75;;;0.90;;
63046;SDS011;62025;39.238;9.126;2023-02-27T10:46:13;5.75;;;1.05;;
63046;SDS011;62025;39.238;9.126;2023-02-27T10:48:42;2.72;;;1.10;;
63046;SDS011;62025;39.238;9.126;2023-02-27T10:56:47;3.83;;;0.90;;
63046;SDS011;62025;39.238;9.126;2023-02-27T10:59:30;1.83;;;0.75;;
63046;SDS011;62025;39.238;9.126;2023-02-27T11:02:05;2.37;;;1.33;;
63046;SDS011;62025;39.238;9.126;2023-02-27T11:04:47;1.98;;;0.80;;
63046;SDS011;62025;39.238;9.126;2023-02-27T11:07:25;3.47;;;0.82;;
63046;SDS011;62025;39.238;9.126;2023-02-27T11:09:58;3.45;;;1.02;;
63046;SDS011;62025;39.238;9.126;2023-02-27T11:12:29;7.60;;;1.10;;
63046;SDS011;62025;39.238;9.126;2023-02-27T11:14:59;3.33;;;1.00;;
63046;SDS011;62025;39.238;9.126;2023-02-27T11:17:46;4.80;;;1.10;;
63046;SDS011;62025;39.238;9.126;2023-02-27T11:20:45;3.53;;;1.02;;
63046;SDS011;62025;39.238;9.126;2023-02-27T11:25:49;4.30;;;1.50;;
63046;SDS011;62025;39.238;9.126;2023-02-27T11:28:24;6.43;;;2.10;;
63046;SDS011;62025;39.238;9.126;2023-02-27T11:33:34;2.83;;;1.40;;
63046;SDS011;62025;39.238;9.126;2023-02-27T11:36:04;2.72;;;1.27;;
63046;SDS011;62025;39.238;9.126;2023-02-27T11:38:31;5.80;;;1.40;;
63046;SDS011;62025;39.238;9.126;2023-02-27T11:41:02;3.85;;;1.88;;
63046;SDS011;62025;39.238;9.126;2023-02-27T11:46:17;3.17;;;1.40;;
63046;SDS011;62025;39.238;9.126;2023-02-27T11:49:02;2.30;;;1.35;;
63046;SDS011;62025;39.238;9.126;2023-02-27T11:54:47;8.13;;;2.00;;
63046;SDS011;62025;39.238;9.126;2023-02-27T11:57:30;6.03;;;1.60;;
63046;SDS011;62025;39.238;9.126;2023-02-27T12:06:02;6.40;;;2.20;;
63046;SDS011;62025;39.238;9.126;2023-02-27T12:08:36;5.65;;;1.95;;
63046;SDS011;62025;39.238;9.126;2023-02-27T12:11:27;6.65;;;1.98;;
63046;SDS011;62025;39.238;9.126;2023-02-27T12:14:15;1.67;;;1.10;;
63046;SDS011;62025;39.238;9.126;2023-02-27T12:19:38;1.83;;;1.15;;
63046;SDS011;62025;39.238;9.126;2023-02-27T12:22:16;1.88;;;1.05;;
63046;SDS011;62025;39.238;9.126;2023-02-27T12:24:53;4.45;;;1.13;;
63046;SDS011;62025;39.238;9.126;2023-02-27T12:27:45;2.55;;;1.00;;
63046;SDS011;62025;39.238;9.126;2023-02-27T12:30:21;5.68;;;1.00;;
63046;SDS011;62025;39.238;9.126;2023-02-27T12:32:57;5.35;;;1.00;;
63046;SDS011;62025;39.238;9.126;2023-02-27T12:35:59;2.13;;;1.10;;
63046;SDS011;62025;39.238;9.126;2023-02-27T12:38:28;7.82;;;1.20;;
63046;SDS011;62025;39.238;9.126;2023-02-27T12:43:39;3.38;;;1.38;;
63046;SDS011;62025;39.238;9.126;2023-02-27T12:46:22;3.83;;;1.38;;
63046;SDS011;62025;39.238;9.126;2023-02-27T12:52:27;2.38;;;1.00;;
63046;SDS011;62025;39.238;9.126;2023-02-27T12:55:22;4.97;;;1.40;;
63046;SDS011;62025;39.238;9.126;2023-02-27T12:58:05;5.05;;;0.90;;
63046;SDS011;62025;39.238;9.126;2023-02-27T13:00:59;2.05;;;0.82;;
63046;SDS011;62025;39.238;9.126;2023-02-27T13:07:00;3.08;;;0.98;;
63046;SDS011;62025;39.238;9.126;2023-02-27T13:14:42;5.22;;;1.20;;
63046;SDS011;62025;39.238;9.126;2023-02-27T13:17:24;3.60;;;1.05;;
63046;SDS011;62025;39.238;9.126;2023-02-27T13:20:04;1.20;;;0.90;;
63046;SDS011;62025;39.238;9.126;2023-02-27T13:25:47;2.53;;;0.90;;
63046;SDS011;62025;39.238;9.126;2023-02-27T13:28:17;3.93;;;1.10;;
63046;SDS011;62025;39.238;9.126;2023-02-27T13:30:57;4.50;;;1.20;;
63046;SDS011;62025;39.238;9.126;2023-02-27T13:36:25;2.83;;;1.55;;
63046;SDS011;62025;39.238;9.126;2023-02-27T13:39:03;2.88;;;1.10;;
63046;SDS011;62025;39.238;9.126;2023-02-27T13:42:55;1.63;;;0.90;;
63046;SDS011;62025;39.238;9.126;2023-02-27T13:52:29;6.18;;;1.92;;
63046;SDS011;62025;39.238;9.126;2023-02-27T13:55:02;4.05;;;1.67;;
63046;SDS011;62025;39.238;9.126;2023-02-27T13:57:48;2.03;;;1.20;;
63046;SDS011;62025;39.238;9.126;2023-02-27T14:00:20;3.92;;;1.27;;
63046;SDS011;62025;39.238;9.126;2023-02-27T14:02:53;4.45;;;1.60;;
63046;SDS011;62025;39.238;9.126;2023-02-27T14:05:37;6.07;;;1.40;;
63046;SDS011;62025;39.238;9.126;2023-02-27T14:11:17;5.10;;;1.88;;
63046;SDS011;62025;39.238;9.126;2023-02-27T14:24:57;3.53;;;1.50;;
63046;SDS011;62025;39.238;9.126;2023-02-27T14:33:20;5.30;;;1.45;;
63046;SDS011;62025;39.238;9.126;2023-02-27T14:36:00;1.48;;;1.13;;
63046;SDS011;62025;39.238;9.126;2023-02-27T14:38:30;3.10;;;1.25;;
63046;SDS011;62025;39.238;9.126;2023-02-27T14:43:58;4.43;;;1.40;;
63046;SDS011;62025;39.238;9.126;2023-02-27T14:46:27;3.22;;;1.23;;
63046;SDS011;62025;39.238;9.126;2023-02-27T14:49:20;6.00;;;1.40;;
63046;SDS011;62025;39.238;9.126;2023-02-27T14:51:54;3.17;;;1.25;;
63046;SDS011;62025;39.238;9.126;2023-02-27T14:54:24;7.20;;;1.25;;
63046;SDS011;62025;39.238;9.126;2023-02-27T14:56:59;7.25;;;1.70;;
63046;SDS011;62025;39.238;9.126;2023-02-27T14:59:33;5.25;;;1.13;;
63046;SDS011;62025;39.238;9.126;2023-02-27T15:02:21;3.47;;;1.10;;
63046;SDS011;62025;39.238;9.126;2023-02-27T15:07:33;4.70;;;1.50;;
63046;SDS011;62025;39.238;9.126;2023-02-27T15:10:05;3.13;;;1.20;;
63046;SDS011;62025;39.238;9.126;2023-02-27T15:12:37;2.03;;;1.20;;
63046;SDS011;62025;39.238;9.126;2023-02-27T15:15:04;4.45;;;1.08;;
63046;SDS011;62025;39.238;9.126;2023-02-27T15:17:41;5.45;;;1.40;;
63046;SDS011;62025;39.238;9.126;2023-02-27T15:20:28;2.60;;;1.10;;
63046;SDS011;62025;39.238;9.126;2023-02-27T15:22:58;4.05;;;1.58;;
63046;SDS011;62025;39.238;9.126;2023-02-27T15:25:30;3.33;;;1.30;;
63046;SDS011;62025;39.238;9.126;2023-02-27T15:28:04;4.38;;;1.50;;
63046;SDS011;62025;39.238;9.126;2023-02-27T15:30:39;2.15;;;1.30;;
63046;SDS011;62025;39.238;9.126;2023-02-27T15:33:10;5.28;;;1.30;;
63046;SDS011;62025;39.238;9.126;2023-02-27T15:35:41;5.72;;;1.30;;
63046;SDS011;62025;39.238;9.126;2023-02-27T15:38:22;4.35;;;1.27;;
63046;SDS011;62025;39.238;9.126;2023-02-27T15:40:58;2.15;;;1.00;;
63046;SDS011;62025;39.238;9.126;2023-02-27T15:43:26;1.42;;;1.20;;
63046;SDS011;62025;39.238;9.126;2023-02-27T15:45:53;2.20;;;1.55;;
63046;SDS011;62025;39.238;9.126;2023-02-27T15:48:22;4.50;;;1.90;;
63046;SDS011;62025;39.238;9.126;2023-02-27T15:50:58;3.67;;;2.00;;
63046;SDS011;62025;39.238;9.126;2023-02-27T15:55:58;6.25;;;1.50;;
63046;SDS011;62025;39.238;9.126;2023-02-27T15:58:32;4.18;;;1.45;;
63046;SDS011;62025;39.238;9.126;2023-02-27T16:01:05;3.00;;;1.17;;
63046;SDS011;62025;39.238;9.126;2023-02-27T16:03:39;4.85;;;1.20;;
63046;SDS011;62025;39.238;9.126;2023-02-27T16:06:10;2.55;;;1.17;;
63046;SDS011;62025;39.238;9.126;2023-02-27T16:08:52;2.92;;;1.33;;
63046;SDS011;62025;39.238;9.126;2023-02-27T16:11:23;3.75;;;1.20;;
63046;SDS011;62025;39.238;9.126;2023-02-27T16:13:53;4.43;;;1.23;;
63046;SDS011;62025;39.238;9.126;2023-02-27T16:18:53;3.17;;;1.20;;
63046;SDS011;62025;39.238;9.126;2023-02-27T16:21:24;3.13;;;1.52;;
63046;SDS011;62025;39.238;9.126;2023-02-27T16:23:52;3.25;;;1.30;;
63046;SDS011;62025;39.238;9.126;2023-02-27T16:29:01;3.13;;;1.37;;
63046;SDS011;62025;39.238;9.126;2023-02-27T16:31:53;4.60;;;1.10;;
63046;SDS011;62025;39.238;9.126;2023-02-27T16:37:04;4.95;;;1.05;;
63046;SDS011;62025;39.238;9.126;2023-02-27T16:39:31;3.67;;;1.30;;
63046;SDS011;62025;39.238;9.126;2023-02-27T16:41:59;2.45;;;1.25;;
63046;SDS011;62025;39.238;9.126;2023-02-27T16:44:26;5.47;;;1.40;;
63046;SDS011;62025;39.238;9.126;2023-02-27T16:46:54;3.60;;;1.30;;
63046;SDS011;62025;39.238;9.126;2023-02-27T16:49:27;4.03;;;1.20;;
63046;SDS011;62025;39.238;9.126;2023-02-27T16:51:55;2.08;;;1.00;;
63046;SDS011;62025;39.238;9.126;2023-02-27T16:54:22;2.50;;;1.33;;
63046;SDS011;62025;39.238;9.126;2023-02-27T16:56:50;2.10;;;1.20;;
63046;SDS011;62025;39.238;9.126;2023-02-27T17:02:02;1.77;;;1.20;;
63046;SDS011;62025;39.238;9.126;2023-02-27T17:04:31;3.17;;;1.20;;
63046;SDS011;62025;39.238;9.126;2023-02-27T17:06:59;2.53;;;1.17;;
63046;SDS011;62025;39.238;9.126;2023-02-27T17:09:26;5.83;;;1.40;;
63046;SDS011;62025;39.238;9.126;2023-02-27T17:11:52;2.03;;;1.15;;
63046;SDS011;62025;39.238;9.126;2023-02-27T17:14:20;4.28;;;1.60;;
63046;SDS011;62025;39.238;9.126;2023-02-27T17:16:47;4.05;;;1.20;;
63046;SDS011;62025;39.238;9.126;2023-02-27T17:19:13;2.70;;;1.50;;
63046;SDS011;62025;39.238;9.126;2023-02-27T17:21:39;4.15;;;1.40;;
63046;SDS011;62025;39.238;9.126;2023-02-27T17:24:06;4.90;;;1.48;;
63046;SDS011;62025;39.238;9.126;2023-02-27T17:26:33;3.78;;;1.40;;
63046;SDS011;62025;39.238;9.126;2023-02-27T17:29:00;4.82;;;1.50;;
63046;SDS011;62025;39.238;9.126;2023-02-27T17:31:27;2.78;;;1.70;;
63046;SDS011;62025;39.238;9.126;2023-02-27T17:33:53;2.88;;;1.85;;
63046;SDS011;62025;39.238;9.126;2023-02-27T17:36:20;5.53;;;2.50;;
63046;SDS011;62025;39.238;9.126;2023-02-27T17:38:47;4.57;;;2.63;;
63046;SDS011;62025;39.238;9.126;2023-02-27T17:41:18;7.93;;;2.65;;
63046;SDS011;62025;39.238;9.126;2023-02-27T17:43:48;2.28;;;1.50;;
63046;SDS011;62025;39.238;9.126;2023-02-27T17:46:16;3.70;;;1.70;;
63046;SDS011;62025;39.238;9.126;2023-02-27T17:48:42;4.35;;;1.88;;
63046;SDS011;62025;39.238;9.126;2023-02-27T17:51:09;3.50;;;1.60;;
63046;SDS011;62025;39.238;9.126;2023-02-27T17:53:38;2.65;;;2.00;;
63046;SDS011;62025;39.238;9.126;2023-02-27T17:56:05;4.05;;;1.70;;
63046;SDS011;62025;39.238;9.126;2023-02-27T17:58:32;4.25;;;1.65;;
63046;SDS011;62025;39.238;9.126;2023-02-27T18:01:09;2.70;;;1.70;;
63046;SDS011;62025;39.238;9.126;2023-02-27T18:03:41;6.32;;;1.75;;
63046;SDS011;62025;39.238;9.126;2023-02-27T18:06:10;6.30;;;1.55;;
63046;SDS011;62025;39.238;9.126;2023-02-27T18:08:37;4.13;;;1.80;;
63046;SDS011;62025;39.238;9.126;2023-02-27T18:11:03;3.50;;;1.40;;
63046;SDS011;62025;39.238;9.126;2023-02-27T18:13:35;5.80;;;1.63;;
63046;SDS011;62025;39.238;9.126;2023-02-27T18:16:02;5.97;;;2.08;;
63046;SDS011;62025;39.238;9.126;2023-02-27T18:18:29;6.78;;;1.80;;
63046;SDS011;62025;39.238;9.126;2023-02-27T18:21:05;2.90;;;1.25;;
63046;SDS011;62025;39.238;9.126;2023-02-27T18:23:38;6.38;;;1.45;;
63046;SDS011;62025;39.238;9.126;2023-02-27T18:26:05;3.88;;;1.70;;
63046;SDS011;62025;39.238;9.126;2023-02-27T18:28:31;4.40;;;1.95;;
63046;SDS011;62025;39.238;9.126;2023-02-27T18:30:58;3.88;;;1.50;;
63046;SDS011;62025;39.238;9.126;2023-02-27T18:33:24;4.35;;;1.60;;
63046;SDS011;62025;39.238;9.126;2023-02-27T18:35:51;4.93;;;1.45;;
63046;SDS011;62025;39.238;9.126;2023-02-27T18:38:17;5.82;;;2.20;;
63046;SDS011;62025;39.238;9.126;2023-02-27T18:40:45;2.70;;;1.50;;
63046;SDS011;62025;39.238;9.126;2023-02-27T18:43:11;5.10;;;1.77;;
63046;SDS011;62025;39.238;9.126;2023-02-27T18:45:38;3.75;;;1.58;;
63046;SDS011;62025;39.238;9.126;2023-02-27T18:48:05;2.75;;;1.80;;
63046;SDS011;62025;39.238;9.126;2023-02-27T18:50:31;4.00;;;1.92;;